createdAt,value
2022-09-30T00:04:38.796Z,47.03
2022-09-30T00:10:00.586Z,50.70
2022-09-30T00:15:22.361Z,52.63
2022-09-30T00:20:44.178Z,50.10
2022-09-30T00:26:09.231Z,45.25
2022-09-30T00:31:33.700Z,45.22
2022-09-30T00:36:55.740Z,47.67
2022-09-30T00:42:17.602Z,42.25
2022-09-30T00:47:54.785Z,48.83
2022-09-30T00:53:23.360Z,44.05
2022-09-30T00:59:00.268Z,42.30
2022-09-30T01:04:24.914Z,42.95
2022-09-30T01:09:46.848Z,43.50
2022-09-30T01:15:09.041Z,47.83
2022-09-30T01:21:03.906Z,49.33
2022-09-30T01:26:39.473Z,47.80
2022-09-30T01:32:31.702Z,48.08
2022-09-30T01:37:56.133Z,44.97
2022-09-30T01:43:42.209Z,40.25
2022-09-30T01:49:25.504Z,41.42
2022-09-30T01:55:01.578Z,46.78
2022-09-30T02:00:23.618Z,42.13
2022-09-30T02:06:10.070Z,32.35
2022-09-30T02:17:05.589Z,40.92
2022-09-30T02:22:39.973Z,42.08
2022-09-30T02:28:07.638Z,43.55
2022-09-30T02:33:35.297Z,42.78
2022-09-30T02:39:06.567Z,45.55
2022-09-30T02:44:29.476Z,40.40
2022-09-30T02:50:18.331Z,43.78
2022-09-30T02:56:00.348Z,34.78
2022-09-30T03:01:22.491Z,44.63
2022-09-30T03:06:44.353Z,40.33
2022-09-30T03:12:16.887Z,40.22
2022-09-30T03:17:50.926Z,42.75
2022-09-30T03:23:22.879Z,47.92
2022-09-30T03:29:20.420Z,49.65
2022-09-30T03:34:50.915Z,55.63
2022-09-30T03:40:22.575Z,52.10
2022-09-30T03:45:57.161Z,58.65
2022-09-30T03:51:20.617Z,54.03
2022-09-30T03:56:42.705Z,60.20
2022-09-30T04:02:04.747Z,58.15
2022-09-30T04:07:26.574Z,53.90
2022-09-30T04:12:48.341Z,51.35
2022-09-30T04:18:10.347Z,47.75
2022-09-30T04:23:37.778Z,48.50
2022-09-30T04:28:59.524Z,46.05
2022-09-30T04:34:21.520Z,45.17
2022-09-30T04:39:43.271Z,44.63
2022-09-30T04:45:05.703Z,46.33
2022-09-30T04:50:27.495Z,42.42
2022-09-30T04:55:49.277Z,45.85
2022-09-30T05:01:13.812Z,45.63
2022-09-30T05:06:35.731Z,46.10
2022-09-30T05:11:57.529Z,43.40
2022-09-30T05:17:19.285Z,44.40
2022-09-30T05:22:41.127Z,45.10
2022-09-30T05:28:02.917Z,38.97
2022-09-30T05:33:25.197Z,38.40
2022-09-30T05:38:50.757Z,38.20
2022-09-30T05:44:12.746Z,36.10
2022-09-30T05:49:34.567Z,34.40
2022-09-30T05:54:56.414Z,69.43
2022-09-30T06:00:19.394Z,65.13
2022-09-30T06:05:41.268Z,44.42
2022-09-30T06:11:08.305Z,53.63
2022-09-30T06:16:30.144Z,46.20
2022-09-30T06:21:51.971Z,42.72
2022-09-30T06:27:13.786Z,43.97
2022-09-30T06:32:35.588Z,33.72
2022-09-30T06:37:57.431Z,30.67
2022-09-30T06:43:19.921Z,32.13
2022-09-30T06:48:41.797Z,36.53
2022-09-30T06:54:03.696Z,32.83
2022-09-30T06:59:25.593Z,34.53
2022-09-30T07:04:47.360Z,25.05
2022-09-30T07:10:10.098Z,24.25
2022-09-30T07:15:31.869Z,22.02
2022-09-30T07:20:55.276Z,22.27
2022-09-30T07:26:22.144Z,20.75
2022-09-30T07:31:43.986Z,18.58
2022-09-30T07:37:05.789Z,20.15
2022-09-30T07:42:27.651Z,18.90
2022-09-30T07:47:53.459Z,17.83
2022-09-30T07:53:15.706Z,18.30
2022-09-30T07:58:37.810Z,17.10
2022-09-30T08:04:03.281Z,17.23
2022-09-30T08:09:27.914Z,17.30
2022-09-30T08:14:49.905Z,16.63
2022-09-30T08:20:13.819Z,18.13
2022-09-30T08:25:37.504Z,19.67
2022-09-30T08:31:13.702Z,19.02
2022-09-30T08:36:35.506Z,15.77
2022-09-30T08:42:35.549Z,17.85
2022-09-30T08:47:55.305Z,17.98
2022-09-30T08:53:29.949Z,18.60
2022-09-30T08:58:56.657Z,18.33
2022-09-30T09:04:18.807Z,17.17
2022-09-30T09:09:49.437Z,18.30
2022-09-30T09:15:18.572Z,19.70
2022-09-30T09:20:55.043Z,17.75
2022-09-30T09:26:17.000Z,16.67
2022-09-30T09:31:38.870Z,13.63
2022-09-30T09:37:22.633Z,20.67
2022-09-30T09:42:51.274Z,10.98
2022-09-30T09:48:13.979Z,11.25
2022-09-30T09:53:54.553Z,12.20
2022-09-30T09:59:20.137Z,9.10
2022-09-30T10:04:48.384Z,10.83
2022-09-30T10:10:23.761Z,10.05
2022-09-30T10:15:47.245Z,8.97
2022-09-30T10:21:21.735Z,13.05
2022-09-30T10:26:48.482Z,9.90
2022-09-30T10:32:13.426Z,8.30
2022-09-30T10:37:35.312Z,8.80
2022-09-30T10:42:58.159Z,8.10
2022-09-30T10:48:24.253Z,7.95
2022-09-30T10:53:46.344Z,7.20
2022-09-30T10:59:28.862Z,7.50
2022-09-30T11:05:15.566Z,7.35
2022-09-30T11:10:51.389Z,8.73
2022-09-30T11:16:33.125Z,7.53
2022-09-30T11:22:05.519Z,5.60
2022-09-30T11:27:53.242Z,6.00
2022-09-30T11:34:02.900Z,7.40
2022-09-30T11:39:48.625Z,7.10
2022-09-30T11:45:27.928Z,7.23
2022-09-30T11:51:08.089Z,8.23
2022-09-30T11:56:51.448Z,7.43
2022-09-30T12:02:36.008Z,8.10
2022-09-30T12:08:12.480Z,7.50
2022-09-30T12:13:39.520Z,8.82
2022-09-30T12:19:13.903Z,6.03
2022-09-30T12:24:38.750Z,5.10
2022-09-30T12:30:15.369Z,5.97
2022-09-30T12:41:25.890Z,6.50
2022-09-30T12:47:17.468Z,6.47
2022-09-30T12:52:39.476Z,7.45
2022-09-30T12:58:01.742Z,7.07
2022-09-30T13:03:24.559Z,6.18
2022-09-30T13:09:18.856Z,5.95
2022-09-30T13:14:41.889Z,5.78
2022-09-30T13:20:42.001Z,8.50
2022-09-30T13:26:24.599Z,4.93
2022-09-30T13:31:49.185Z,4.80
2022-09-30T13:37:31.189Z,5.47
2022-09-30T13:42:55.800Z,6.30
2022-09-30T13:48:36.485Z,4.93
2022-09-30T13:54:06.129Z,5.35
2022-09-30T13:59:55.841Z,5.18
2022-09-30T14:05:26.602Z,6.13
2022-09-30T14:11:08.600Z,5.40
2022-09-30T14:16:40.269Z,19.33
2022-09-30T14:22:08.627Z,5.82
2022-09-30T14:27:43.866Z,5.93
2022-09-30T14:33:22.546Z,6.85
2022-09-30T14:38:48.727Z,7.53
2022-09-30T14:44:14.723Z,6.63
2022-09-30T14:49:36.607Z,8.63
2022-09-30T14:54:58.384Z,7.43
2022-09-30T15:00:31.269Z,7.53
2022-09-30T15:05:53.430Z,11.82
2022-09-30T15:11:24.680Z,8.70
2022-09-30T15:16:49.757Z,8.30
2022-09-30T15:22:13.310Z,7.35
2022-09-30T15:27:36.449Z,11.70
2022-09-30T15:33:01.152Z,13.52
2022-09-30T15:38:26.296Z,9.07
2022-09-30T15:43:50.357Z,9.20
2022-09-30T15:49:34.147Z,9.75
2022-09-30T15:54:57.567Z,8.48
2022-09-30T16:00:38.170Z,8.50
2022-09-30T16:06:06.978Z,9.98
2022-09-30T16:11:39.038Z,8.75
2022-09-30T16:17:03.217Z,9.65
2022-09-30T16:22:37.028Z,13.50
2022-09-30T16:28:01.860Z,7.85
2022-09-30T16:33:23.801Z,10.30
2022-09-30T16:38:45.571Z,11.93
2022-09-30T16:44:07.525Z,11.45
2022-09-30T16:49:29.361Z,16.65
2022-09-30T16:54:51.082Z,12.20
2022-09-30T17:00:14.976Z,10.77
2022-09-30T17:05:39.922Z,13.93
2022-09-30T17:11:01.706Z,12.98
2022-09-30T17:16:24.375Z,13.10
2022-09-30T17:21:46.190Z,14.57
2022-09-30T17:27:09.102Z,13.55
2022-09-30T17:32:30.852Z,11.80
2022-09-30T17:37:52.642Z,10.68
2022-09-30T17:43:14.418Z,11.35
2022-09-30T17:48:36.208Z,9.75
2022-09-30T17:53:58.029Z,12.82
2022-09-30T17:59:19.794Z,9.27
2022-09-30T18:04:41.607Z,10.13
2022-09-30T18:10:03.554Z,10.20
2022-09-30T18:15:25.450Z,11.82
2022-09-30T18:20:48.699Z,15.57
2022-09-30T18:26:10.445Z,12.85
2022-09-30T18:31:32.428Z,13.02
2022-09-30T18:36:54.690Z,13.43
2022-09-30T18:42:16.592Z,14.70
2022-09-30T18:47:39.935Z,11.95
2022-09-30T18:53:05.657Z,13.48
2022-09-30T18:58:30.385Z,19.08
2022-09-30T19:03:52.217Z,16.98
2022-09-30T19:09:14.869Z,15.35
2022-09-30T19:14:36.629Z,13.68
2022-09-30T19:19:59.397Z,15.93
2022-09-30T19:25:21.212Z,18.85
2022-09-30T19:30:43.017Z,20.00
2022-09-30T19:36:14.409Z,18.83
2022-09-30T19:41:36.683Z,16.50
2022-09-30T19:46:58.471Z,17.25
2022-09-30T19:52:22.106Z,20.27
2022-09-30T19:57:44.151Z,17.70
2022-09-30T20:03:05.925Z,27.55
2022-09-30T20:08:31.606Z,15.82
2022-09-30T20:13:55.508Z,20.52
2022-09-30T20:19:18.339Z,17.55
2022-09-30T20:24:40.081Z,19.70
2022-09-30T20:30:01.849Z,25.77
2022-09-30T20:35:24.203Z,21.58
2022-09-30T20:40:45.974Z,20.70
2022-09-30T20:46:07.810Z,21.08
2022-09-30T20:51:31.193Z,24.02
2022-09-30T20:57:06.778Z,24.73
2022-09-30T21:02:29.567Z,21.67
2022-09-30T21:07:51.378Z,22.00
2022-09-30T21:13:13.135Z,26.95
2022-09-30T21:18:34.899Z,25.52
2022-09-30T21:23:56.660Z,26.38
2022-09-30T21:29:18.925Z,24.33
2022-09-30T21:34:40.965Z,26.60
2022-09-30T21:40:02.764Z,28.08
2022-09-30T21:45:24.749Z,26.58
2022-09-30T21:50:46.569Z,26.15
2022-09-30T21:56:10.215Z,32.42
2022-09-30T22:01:32.632Z,25.42
2022-09-30T22:06:54.562Z,28.02
2022-09-30T22:12:16.315Z,27.55
2022-09-30T22:17:38.120Z,26.85
2022-09-30T22:23:00.010Z,28.90
2022-09-30T22:28:21.799Z,29.55
2022-09-30T22:33:43.718Z,28.60
2022-09-30T22:39:05.512Z,30.85
2022-09-30T22:44:31.935Z,28.15
2022-09-30T22:49:53.698Z,25.35
2022-09-30T22:55:15.464Z,32.97
2022-09-30T23:00:37.292Z,30.65
2022-09-30T23:06:03.743Z,26.20
2022-09-30T23:11:25.502Z,30.55
2022-09-30T23:16:47.765Z,26.85
2022-09-30T23:22:09.638Z,28.67
2022-09-30T23:27:31.448Z,27.83
2022-09-30T23:32:53.299Z,29.73
2022-09-30T23:38:15.672Z,31.35
2022-09-30T23:43:37.656Z,27.73
2022-09-30T23:49:00.796Z,31.13
2022-09-30T23:54:22.551Z,32.75
2022-09-30T23:59:44.314Z,28.58
